createdAt,value
2023-02-27T00:02:21.726Z,67.38
2023-02-27T00:04:51.646Z,67.02
2023-02-27T00:07:23.789Z,67.35
2023-02-27T00:09:52.866Z,67.95
2023-02-27T00:12:21.732Z,68.03
2023-02-27T00:14:49.472Z,67.59
2023-02-27T00:17:17.277Z,67.71
2023-02-27T00:19:49.911Z,67.28
2023-02-27T00:22:18.195Z,67.82
2023-02-27T00:24:48.892Z,67.84
2023-02-27T00:27:19.099Z,68.29
2023-02-27T00:29:47.000Z,69.17
2023-02-27T00:32:15.063Z,69.53
2023-02-27T00:34:42.949Z,68.94
2023-02-27T00:37:12.493Z,68.57
2023-02-27T00:39:40.567Z,68.42
2023-02-27T00:42:09.024Z,67.80
2023-02-27T00:44:37.142Z,67.77
2023-02-27T00:49:49.904Z,69.62
2023-02-27T00:52:18.232Z,69.50
2023-02-27T00:54:55.554Z,69.75
2023-02-27T00:57:24.938Z,69.23
2023-02-27T00:59:52.966Z,69.92
2023-02-27T01:02:21.105Z,69.86
2023-02-27T01:04:49.418Z,69.10
2023-02-27T01:07:17.560Z,69.48
2023-02-27T01:12:27.121Z,68.76
2023-02-27T01:14:55.376Z,68.89
2023-02-27T01:17:23.969Z,68.61
2023-02-27T01:19:54.317Z,68.80
2023-02-27T01:22:24.579Z,69.18
2023-02-27T01:24:52.589Z,69.78
2023-02-27T01:27:20.458Z,68.99
2023-02-27T01:32:30.443Z,69.39
2023-02-27T01:34:58.614Z,68.89
2023-02-27T01:37:27.079Z,69.02
2023-02-27T01:39:59.727Z,69.44
2023-02-27T01:42:29.772Z,69.85
2023-02-27T01:45:23.838Z,68.99
2023-02-27T01:47:56.065Z,68.58
2023-02-27T01:50:24.873Z,69.33
2023-02-27T01:53:00.014Z,69.83
2023-02-27T01:55:31.584Z,68.82
2023-02-27T01:58:00.384Z,69.03
2023-02-27T02:00:28.666Z,68.92
2023-02-27T02:03:16.682Z,69.04
2023-02-27T02:05:47.095Z,68.85
2023-02-27T02:08:18.732Z,68.67
2023-02-27T02:10:50.402Z,68.56
2023-02-27T02:13:19.452Z,68.67
2023-02-27T02:16:00.935Z,68.22
2023-02-27T02:18:54.381Z,68.38
2023-02-27T02:21:59.031Z,68.06
2023-02-27T02:24:57.744Z,68.60
2023-02-27T02:27:40.763Z,69.69
2023-02-27T02:30:36.057Z,72.86
2023-02-27T02:33:32.274Z,76.52
2023-02-27T02:36:04.847Z,78.29
2023-02-27T02:38:51.126Z,79.01
2023-02-27T02:41:25.653Z,80.09
2023-02-27T02:44:12.212Z,81.28
2023-02-27T02:46:51.349Z,80.96
2023-02-27T02:49:35.521Z,82.55
2023-02-27T02:52:14.905Z,82.76
2023-02-27T02:57:53.576Z,83.65
2023-02-27T03:00:29.209Z,83.19
2023-02-27T03:03:07.172Z,82.07
2023-02-27T03:05:41.255Z,82.50
2023-02-27T03:08:25.157Z,83.51
2023-02-27T03:10:58.049Z,83.68
2023-02-27T03:13:40.462Z,83.14
2023-02-27T03:16:23.233Z,84.01
2023-02-27T03:19:06.200Z,85.35
2023-02-27T03:21:42.099Z,84.30
2023-02-27T03:24:15.193Z,85.08
2023-02-27T03:26:45.838Z,86.56
2023-02-27T03:29:26.688Z,87.06
2023-02-27T03:32:01.597Z,87.01
2023-02-27T03:34:40.456Z,87.82
2023-02-27T03:37:49.038Z,87.26
2023-02-27T03:40:39.776Z,86.52
2023-02-27T03:43:52.893Z,85.90
2023-02-27T03:46:26.819Z,87.02
2023-02-27T03:48:55.540Z,89.50
2023-02-27T03:51:25.799Z,88.47
2023-02-27T03:54:35.479Z,89.79
2023-02-27T03:57:08.705Z,89.24
2023-02-27T03:59:38.242Z,87.94
2023-02-27T04:02:06.639Z,88.29
2023-02-27T04:04:36.306Z,88.11
2023-02-27T04:07:54.526Z,87.33
2023-02-27T04:10:50.134Z,86.60
2023-02-27T04:13:23.124Z,86.77
2023-02-27T04:16:03.062Z,86.27
2023-02-27T04:18:49.539Z,86.04
2023-02-27T04:21:17.371Z,85.94
2023-02-27T04:23:50.457Z,86.24
2023-02-27T04:26:30.821Z,86.52
2023-02-27T04:29:07.818Z,86.25
2023-02-27T04:31:36.016Z,86.09
2023-02-27T04:34:11.745Z,85.94
2023-02-27T04:36:54.146Z,86.83
2023-02-27T04:39:25.135Z,86.24
2023-02-27T04:42:05.567Z,87.19
2023-02-27T04:44:36.507Z,86.80
2023-02-27T04:47:07.751Z,86.34
2023-02-27T04:49:41.984Z,86.00
2023-02-27T04:52:15.923Z,86.81
2023-02-27T04:54:47.017Z,85.79
2023-02-27T04:57:21.175Z,85.77
2023-02-27T04:59:55.368Z,85.79
2023-02-27T05:02:33.036Z,85.33
2023-02-27T05:05:04.054Z,86.60
2023-02-27T05:07:47.310Z,91.31
2023-02-27T05:10:30.589Z,92.06
2023-02-27T05:13:10.860Z,92.07
2023-02-27T05:15:45.838Z,91.35
2023-02-27T05:18:18.425Z,91.20
2023-02-27T05:21:28.294Z,91.02
2023-02-27T05:24:22.319Z,90.85
2023-02-27T05:27:18.138Z,89.42
2023-02-27T05:29:50.606Z,88.84
2023-02-27T05:32:26.738Z,88.20
2023-02-27T05:35:39.260Z,87.82
2023-02-27T05:38:21.240Z,87.11
2023-02-27T05:41:01.130Z,86.77
2023-02-27T05:43:36.372Z,86.76
2023-02-27T05:46:10.746Z,86.05
2023-02-27T05:48:47.841Z,86.14
2023-02-27T05:51:17.835Z,86.01
2023-02-27T05:53:51.434Z,85.25
2023-02-27T05:56:23.802Z,83.77
2023-02-27T05:58:57.042Z,83.25
2023-02-27T06:01:24.977Z,82.47
2023-02-27T06:03:54.003Z,82.68
2023-02-27T06:06:23.334Z,81.78
2023-02-27T06:08:51.573Z,81.23
2023-02-27T06:11:19.405Z,80.64
2023-02-27T06:13:47.371Z,79.55
2023-02-27T06:16:16.308Z,80.71
2023-02-27T06:18:44.202Z,80.23
2023-02-27T06:21:14.120Z,80.05
2023-02-27T06:23:41.923Z,78.78
2023-02-27T06:26:13.878Z,78.88
2023-02-27T06:28:42.709Z,78.41
2023-02-27T06:31:10.695Z,78.16
2023-02-27T06:33:38.814Z,76.85
2023-02-27T06:36:07.031Z,76.22
2023-02-27T06:38:35.069Z,77.02
2023-02-27T06:41:11.751Z,75.53
2023-02-27T06:43:40.023Z,75.15
2023-02-27T06:46:08.078Z,74.21
2023-02-27T06:48:36.130Z,73.43
2023-02-27T06:51:04.370Z,73.63
2023-02-27T06:53:32.405Z,72.98
2023-02-27T06:56:00.437Z,73.99
2023-02-27T06:58:28.377Z,73.17
2023-02-27T07:00:58.672Z,72.96
2023-02-27T07:03:26.932Z,73.19
2023-02-27T07:05:54.730Z,73.22
2023-02-27T07:08:22.908Z,73.43
2023-02-27T07:10:50.962Z,74.65
2023-02-27T07:13:19.868Z,72.00
2023-02-27T07:15:48.086Z,72.77
2023-02-27T07:18:16.164Z,72.22
2023-02-27T07:20:44.105Z,72.08
2023-02-27T07:23:12.079Z,70.83
2023-02-27T07:25:39.915Z,71.26
2023-02-27T07:28:08.050Z,71.95
2023-02-27T07:30:36.132Z,70.47
2023-02-27T07:33:04.064Z,69.81
2023-02-27T07:35:32.141Z,69.48
2023-02-27T07:37:59.991Z,68.60
2023-02-27T07:40:28.255Z,68.49
2023-02-27T07:42:56.175Z,67.54
2023-02-27T07:45:24.409Z,65.23
2023-02-27T07:47:52.322Z,59.57
2023-02-27T07:50:20.550Z,52.52
2023-02-27T07:52:48.541Z,49.64
2023-02-27T07:55:16.623Z,47.36
2023-02-27T07:57:45.506Z,45.26
2023-02-27T08:00:13.740Z,45.18
2023-02-27T08:02:41.877Z,41.26
2023-02-27T08:05:10.300Z,36.95
2023-02-27T08:07:38.173Z,36.62
2023-02-27T08:10:07.129Z,37.20
2023-02-27T08:12:35.329Z,40.16
2023-02-27T08:15:03.469Z,41.26
2023-02-27T08:17:31.770Z,42.75
2023-02-27T08:19:59.830Z,44.29
2023-02-27T08:22:27.755Z,44.94
2023-02-27T08:24:55.836Z,44.91
2023-02-27T08:27:24.489Z,45.66
2023-02-27T08:29:52.460Z,46.18
2023-02-27T08:32:20.544Z,44.26
2023-02-27T08:34:48.670Z,41.86
2023-02-27T08:37:16.604Z,40.54
2023-02-27T08:39:44.708Z,39.92
2023-02-27T08:42:12.943Z,39.84
2023-02-27T08:44:40.911Z,40.18
2023-02-27T08:47:08.965Z,38.79
2023-02-27T08:49:37.222Z,39.01
2023-02-27T08:52:05.852Z,40.65
2023-02-27T08:54:33.792Z,41.70
2023-02-27T08:57:01.794Z,42.71
2023-02-27T08:59:30.609Z,43.36
2023-02-27T09:01:59.312Z,43.19
2023-02-27T09:04:26.985Z,41.08
2023-02-27T09:06:54.960Z,39.97
2023-02-27T09:09:26.369Z,40.52
2023-02-27T09:11:54.514Z,39.98
2023-02-27T09:14:24.329Z,40.35
2023-02-27T09:16:52.252Z,40.66
2023-02-27T09:19:20.464Z,41.13
2023-02-27T09:21:48.667Z,42.93
2023-02-27T09:24:20.457Z,43.58
2023-02-27T09:26:50.270Z,42.54
2023-02-27T09:29:19.221Z,43.90
2023-02-27T09:31:47.683Z,43.08
2023-02-27T09:34:15.845Z,43.39
2023-02-27T09:36:43.880Z,44.91
2023-02-27T09:39:14.191Z,46.38
2023-02-27T09:41:55.867Z,47.27
2023-02-27T09:44:52.905Z,48.28
2023-02-27T09:47:26.701Z,47.53
2023-02-27T09:50:06.531Z,48.46
2023-02-27T09:52:37.596Z,50.91
2023-02-27T09:55:12.529Z,51.21
2023-02-27T09:58:07.138Z,53.01
2023-02-27T10:00:51.608Z,53.10
2023-02-27T10:03:37.585Z,51.38
2023-02-27T10:06:08.652Z,48.47
2023-02-27T10:08:44.876Z,47.61
2023-02-27T10:11:17.836Z,47.92
2023-02-27T10:14:13.255Z,48.92
2023-02-27T10:16:43.207Z,45.49
2023-02-27T10:19:17.426Z,47.01
2023-02-27T10:21:50.024Z,49.56
2023-02-27T10:24:24.150Z,48.20
2023-02-27T10:26:55.999Z,47.56
2023-02-27T10:29:40.163Z,49.03
2023-02-27T10:32:18.846Z,48.54
2023-02-27T10:35:11.462Z,50.30
2023-02-27T10:37:48.626Z,51.13
2023-02-27T10:40:18.115Z,52.66
2023-02-27T10:42:46.202Z,53.45
2023-02-27T10:45:16.151Z,54.25
2023-02-27T10:47:44.723Z,54.19
2023-02-27T10:50:23.186Z,53.70
2023-02-27T10:52:53.033Z,54.03
2023-02-27T10:55:28.208Z,54.44
2023-02-27T10:58:01.176Z,55.36
2023-02-27T11:00:44.277Z,55.07
2023-02-27T11:03:32.669Z,55.27
2023-02-27T11:06:07.435Z,55.79
2023-02-27T11:08:36.584Z,54.46
2023-02-27T11:11:07.389Z,54.35
2023-02-27T11:13:39.052Z,54.53
2023-02-27T11:16:09.974Z,55.76
2023-02-27T11:18:40.475Z,54.76
2023-02-27T11:21:30.037Z,56.17
2023-02-27T11:24:00.319Z,56.02
2023-02-27T11:26:38.441Z,57.33
2023-02-27T11:29:08.644Z,57.59
2023-02-27T11:31:38.562Z,57.48
2023-02-27T11:34:08.657Z,57.41
2023-02-27T11:36:46.865Z,57.22
2023-02-27T11:39:29.793Z,56.75
2023-02-27T11:42:06.106Z,56.96
2023-02-27T11:44:50.895Z,58.13
2023-02-27T11:47:34.359Z,58.66
2023-02-27T11:50:41.584Z,59.24
2023-02-27T11:53:42.301Z,59.95
2023-02-27T11:56:19.565Z,59.65
2023-02-27T11:59:12.630Z,58.93
2023-02-27T12:01:47.090Z,57.35
2023-02-27T12:04:22.330Z,57.11
2023-02-27T12:07:04.041Z,57.70
2023-02-27T12:09:46.129Z,58.23
2023-02-27T12:12:24.778Z,57.47
2023-02-27T12:15:07.521Z,57.56
2023-02-27T12:17:41.904Z,58.07
2023-02-27T12:20:23.124Z,57.48
2023-02-27T12:22:54.644Z,57.60
2023-02-27T12:26:03.642Z,58.77
2023-02-27T12:29:05.069Z,60.24
2023-02-27T12:31:41.261Z,60.74
2023-02-27T12:34:15.957Z,62.01
2023-02-27T12:36:44.029Z,61.41
2023-02-27T12:39:24.326Z,62.01
2023-02-27T12:42:22.023Z,63.28
2023-02-27T12:45:14.588Z,65.32
2023-02-27T12:47:42.746Z,66.05
2023-02-27T12:50:13.145Z,65.93
2023-02-27T12:53:14.568Z,67.34
2023-02-27T12:55:56.563Z,66.07
2023-02-27T12:58:46.018Z,67.73
2023-02-27T13:01:32.707Z,66.43
2023-02-27T13:04:43.232Z,68.61
2023-02-27T13:07:29.104Z,68.71
2023-02-27T13:10:04.390Z,67.40
2023-02-27T13:13:21.487Z,67.92
2023-02-27T13:16:14.609Z,67.75
2023-02-27T13:18:49.185Z,67.90
2023-02-27T13:21:54.673Z,68.85
2023-02-27T13:24:31.577Z,68.37
2023-02-27T13:27:00.053Z,70.29
2023-02-27T13:29:37.373Z,71.29
2023-02-27T13:32:41.295Z,72.37
2023-02-27T13:35:41.972Z,72.99
2023-02-27T13:38:32.646Z,73.60
2023-02-27T13:41:38.493Z,76.16
2023-02-27T13:44:21.888Z,78.20
2023-02-27T13:46:50.263Z,77.45
2023-02-27T13:49:30.203Z,78.02
2023-02-27T13:52:02.392Z,79.24
2023-02-27T13:54:40.224Z,78.62
2023-02-27T13:57:19.905Z,79.12
2023-02-27T14:00:21.474Z,80.12
2023-02-27T14:03:00.555Z,78.67
2023-02-27T14:05:35.212Z,79.63
2023-02-27T14:08:12.484Z,80.22
2023-02-27T14:10:51.210Z,80.83
2023-02-27T14:13:51.347Z,80.39
2023-02-27T14:16:38.253Z,79.28
2023-02-27T14:19:18.274Z,79.37
2023-02-27T14:21:57.917Z,79.21
2023-02-27T14:25:01.222Z,79.41
2023-02-27T14:27:47.444Z,79.49
2023-02-27T14:30:29.567Z,79.80
2023-02-27T14:33:03.093Z,79.98
2023-02-27T14:35:32.330Z,79.28
2023-02-27T14:38:08.654Z,80.78
2023-02-27T14:40:48.272Z,80.68
2023-02-27T14:43:18.916Z,82.10
2023-02-27T14:45:48.460Z,81.26
2023-02-27T14:48:27.038Z,81.24
2023-02-27T14:50:58.432Z,80.88
2023-02-27T14:53:27.707Z,80.47
2023-02-27T14:55:59.531Z,82.35
2023-02-27T14:58:28.065Z,82.70
2023-02-27T15:00:56.134Z,82.98
2023-02-27T15:03:35.186Z,82.72
2023-02-27T15:06:15.871Z,78.70
2023-02-27T15:08:48.550Z,78.89
2023-02-27T15:11:20.141Z,80.30
2023-02-27T15:14:01.413Z,80.15
2023-02-27T15:16:31.989Z,81.13
2023-02-27T15:19:05.232Z,79.18
2023-02-27T15:21:39.065Z,79.63
2023-02-27T15:24:21.528Z,80.36
2023-02-27T15:27:05.013Z,79.87
2023-02-27T15:30:00.331Z,80.24
2023-02-27T15:32:38.256Z,81.03
2023-02-27T15:35:17.974Z,80.97
2023-02-27T15:37:52.550Z,80.89
2023-02-27T15:40:27.039Z,80.86
2023-02-27T15:42:56.924Z,80.04
2023-02-27T15:45:36.386Z,80.16
2023-02-27T15:48:05.501Z,80.50
2023-02-27T15:50:36.312Z,80.81
2023-02-27T15:53:17.379Z,80.37
2023-02-27T15:55:50.104Z,81.26
2023-02-27T15:58:28.054Z,81.26
2023-02-27T16:01:03.445Z,81.44
2023-02-27T16:03:50.086Z,81.72
2023-02-27T16:06:21.620Z,82.67
2023-02-27T16:09:06.984Z,83.90
2023-02-27T16:11:37.861Z,83.39
2023-02-27T16:14:08.924Z,82.82
2023-02-27T16:16:39.112Z,83.26
2023-02-27T16:19:29.725Z,83.48
2023-02-27T16:22:14.420Z,83.17
2023-02-27T16:24:43.854Z,83.37
2023-02-27T16:27:20.471Z,83.38
2023-02-27T16:29:49.106Z,83.50
2023-02-27T16:32:27.974Z,83.58
2023-02-27T16:35:15.852Z,83.33
2023-02-27T16:37:46.748Z,83.52
2023-02-27T16:40:17.843Z,83.76
2023-02-27T16:42:47.304Z,83.66
2023-02-27T16:45:19.186Z,85.04
2023-02-27T16:47:50.417Z,85.04
2023-02-27T16:50:41.464Z,84.81
2023-02-27T16:53:09.809Z,84.68
2023-02-27T16:55:40.788Z,84.77
2023-02-27T16:58:15.948Z,83.58
2023-02-27T17:00:44.292Z,83.67
2023-02-27T17:03:12.575Z,84.95
2023-02-27T17:05:41.812Z,85.25
2023-02-27T17:08:10.652Z,86.11
2023-02-27T17:10:38.946Z,86.67
2023-02-27T17:13:07.438Z,87.86
2023-02-27T17:15:35.718Z,87.64
2023-02-27T17:18:04.110Z,87.71
2023-02-27T17:20:32.532Z,87.77
2023-02-27T17:23:01.058Z,87.51
2023-02-27T17:25:30.339Z,86.58
2023-02-27T17:27:58.853Z,87.19
2023-02-27T17:30:27.406Z,87.57
2023-02-27T17:32:56.885Z,86.75
2023-02-27T17:35:27.053Z,86.50
2023-02-27T17:37:56.129Z,86.61
2023-02-27T17:40:24.635Z,86.52
2023-02-27T17:42:53.155Z,87.22
2023-02-27T17:45:21.922Z,87.90
2023-02-27T17:47:50.873Z,87.20
2023-02-27T17:50:19.234Z,86.76
2023-02-27T17:52:47.611Z,86.81
2023-02-27T17:55:17.128Z,86.58
2023-02-27T17:57:45.717Z,87.22
2023-02-27T18:00:15.574Z,85.80
2023-02-27T18:02:45.828Z,86.01
2023-02-27T18:05:15.172Z,86.34
2023-02-27T18:07:43.727Z,85.47
2023-02-27T18:10:14.614Z,85.72
2023-02-27T18:12:43.724Z,86.88
2023-02-27T18:15:12.146Z,86.15
2023-02-27T18:17:40.538Z,86.44
2023-02-27T18:20:10.463Z,86.49
2023-02-27T18:22:38.973Z,86.69
2023-02-27T18:25:07.503Z,87.06
2023-02-27T18:27:36.004Z,86.88
2023-02-27T18:30:04.898Z,86.37
2023-02-27T18:32:33.272Z,86.57
2023-02-27T18:35:02.506Z,86.02
2023-02-27T18:37:30.970Z,85.87
2023-02-27T18:39:59.464Z,86.47
2023-02-27T18:42:28.015Z,87.21
2023-02-27T18:44:56.678Z,87.07
2023-02-27T18:47:25.867Z,86.15
2023-02-27T18:49:54.438Z,85.93
2023-02-27T18:52:22.886Z,85.61
2023-02-27T18:54:51.698Z,86.15
2023-02-27T18:57:20.090Z,86.50
2023-02-27T18:59:48.674Z,86.19
2023-02-27T19:02:19.976Z,86.01
2023-02-27T19:04:49.383Z,85.90
2023-02-27T19:07:18.637Z,85.71
2023-02-27T19:09:47.335Z,85.14
2023-02-27T19:12:16.018Z,85.94
2023-02-27T19:14:44.337Z,86.58
2023-02-27T19:17:12.976Z,88.46
2023-02-27T19:19:41.570Z,89.01
2023-02-27T19:22:09.964Z,89.65
2023-02-27T19:24:38.573Z,90.25
2023-02-27T19:27:07.996Z,89.02
2023-02-27T19:29:36.756Z,88.55
2023-02-27T19:32:07.962Z,88.77
2023-02-27T19:34:36.505Z,89.41
2023-02-27T19:37:05.078Z,88.54
2023-02-27T19:39:33.326Z,90.43
2023-02-27T19:42:02.170Z,90.21
2023-02-27T19:44:30.310Z,90.57
2023-02-27T19:46:59.014Z,89.15
2023-02-27T19:49:27.669Z,89.73
2023-02-27T19:51:56.328Z,88.73
2023-02-27T19:54:25.000Z,88.69
2023-02-27T19:56:54.717Z,89.07
2023-02-27T19:59:24.882Z,87.63
2023-02-27T20:01:53.684Z,87.65
2023-02-27T20:04:22.075Z,88.99
2023-02-27T20:06:53.304Z,88.64
2023-02-27T20:09:23.595Z,87.90
2023-02-27T20:11:57.115Z,87.83
2023-02-27T20:14:25.940Z,87.73
2023-02-27T20:16:54.657Z,87.51
2023-02-27T20:19:24.618Z,86.59
2023-02-27T20:21:54.577Z,86.61
2023-02-27T20:24:24.845Z,87.24
2023-02-27T20:26:54.590Z,87.22
2023-02-27T20:29:24.975Z,86.92
2023-02-27T20:31:55.859Z,87.49
2023-02-27T20:34:26.666Z,87.35
2023-02-27T20:36:56.175Z,87.45
2023-02-27T20:39:25.296Z,86.68
2023-02-27T20:41:53.397Z,85.43
2023-02-27T20:44:21.900Z,85.96
2023-02-27T20:46:50.401Z,86.98
2023-02-27T20:49:19.060Z,87.95
2023-02-27T20:51:46.972Z,88.70
2023-02-27T20:54:20.774Z,88.10
2023-02-27T20:56:54.834Z,87.99
2023-02-27T20:59:25.781Z,88.07
2023-02-27T21:01:54.750Z,87.81
2023-02-27T21:04:43.255Z,88.02
2023-02-27T21:07:16.559Z,87.45
2023-02-27T21:09:48.340Z,87.23
2023-02-27T21:12:17.554Z,87.95
2023-02-27T21:14:45.648Z,88.29
2023-02-27T21:17:14.071Z,88.05
2023-02-27T21:19:42.405Z,88.77
2023-02-27T21:22:12.679Z,89.37
2023-02-27T21:24:45.500Z,88.57
2023-02-27T21:27:14.051Z,89.52
2023-02-27T21:29:42.541Z,89.62
2023-02-27T21:34:54.820Z,90.27
2023-02-27T21:37:32.084Z,89.83
2023-02-27T21:40:02.465Z,89.37
2023-02-27T21:45:19.846Z,91.32
2023-02-27T21:47:57.646Z,91.06
2023-02-27T21:50:29.618Z,90.20
2023-02-27T21:52:58.027Z,90.63
2023-02-27T21:55:36.083Z,90.92
2023-02-27T21:58:04.532Z,90.64
2023-02-27T22:03:14.455Z,90.53
2023-02-27T22:05:53.130Z,90.56
2023-02-27T22:08:21.168Z,90.12
2023-02-27T22:13:32.602Z,89.19
2023-02-27T22:16:05.614Z,88.71
2023-02-27T22:18:34.295Z,88.71
2023-02-27T22:21:03.066Z,89.12
2023-02-27T22:23:31.448Z,88.41
2023-02-27T22:26:07.511Z,88.05
2023-02-27T22:28:39.324Z,88.36
2023-02-27T22:31:19.750Z,88.19
2023-02-27T22:33:50.360Z,88.36
2023-02-27T22:36:24.746Z,87.43
2023-02-27T22:38:53.580Z,88.80
2023-02-27T22:41:28.165Z,89.46
2023-02-27T22:43:57.119Z,90.26
2023-02-27T22:46:39.833Z,89.41
2023-02-27T22:49:12.620Z,89.33
2023-02-27T22:51:40.814Z,89.25
2023-02-27T22:54:10.382Z,89.33
2023-02-27T22:56:40.400Z,90.25
2023-02-27T22:59:08.759Z,90.84
2023-02-27T23:01:37.965Z,89.47
2023-02-27T23:04:08.979Z,91.06
2023-02-27T23:06:43.156Z,92.96
2023-02-27T23:09:17.265Z,93.05
2023-02-27T23:11:45.225Z,93.63
2023-02-27T23:14:13.735Z,93.49
2023-02-27T23:16:45.885Z,93.95
2023-02-27T23:19:16.447Z,93.57
2023-02-27T23:21:44.404Z,93.84
2023-02-27T23:24:18.095Z,93.04
2023-02-27T23:26:50.462Z,92.43
2023-02-27T23:29:19.091Z,91.65
2023-02-27T23:31:47.346Z,92.17
2023-02-27T23:34:15.349Z,91.13
2023-02-27T23:36:44.258Z,90.34
2023-02-27T23:39:12.253Z,90.07
2023-02-27T23:41:40.433Z,91.61
2023-02-27T23:44:08.300Z,90.93
2023-02-27T23:46:36.199Z,90.80
2023-02-27T23:49:04.115Z,90.71
2023-02-27T23:51:33.622Z,89.89
2023-02-27T23:54:01.841Z,89.93
2023-02-27T23:56:31.198Z,89.70
2023-02-27T23:59:02.397Z,89.17
